Latest Weather Observations for Port Fairy

IDV60801

Issued at 8:02 am EST Saturday 24 August 2019 (issued every 10 minutes, with the page automatically refreshed every 10 minutes)

About weather observations | Map of weather stations | Latest weather observations for VIC | Other Formats
Station Details ID: 090175 Name: PORT FAIRY AWS Lat: -38.39 Lon: 142.23 Height: 10.0 m
Data from the previous 72 hours. | See also: Recent months at Port Fairy
Date/Time
EST
Temp
°C
App
Temp
°C
Dew
Point
°C
Rel
Hum
%
Delta-T
°C
Wind Press
QNH
hPa
Press
MSL
hPa
Rain since
9am
mm
Dir  Spd
km/h
Gust
km/h
Spd
kts
Gust
kts
24/08:00am 10.4 5.5 6.7 78 1.7 N 22 35 12 19 1011.2 1011.2 0.0
24/07:30am 9.5 4.9 6.6 82 1.4 N 20 37 11 20 1011.3 1011.3 0.0
24/07:00am 8.7 4.3 6.7 87 0.9 N 19 30 10 16 1011.4 1011.4 0.0
24/06:30am 8.3 4.3 6.6 89 0.8 N 17 22 9 12 1011.5 1011.5 0.0
24/06:00am 8.5 4.9 6.6 88 0.9 N 15 20 8 11 1011.8 1011.8 0.0
24/05:30am 8.9 4.6 6.9 87 0.9 N 19 26 10 14 1011.9 1011.9 0.0
24/05:00am 8.6 4.7 6.9 89 0.8 N 17 22 9 12 1012.2 1012.2 0.0
24/04:30am 8.7 4.4 7.0 89 0.8 N 19 26 10 14 1012.6 1012.6 0.0
24/04:00am 8.0 4.4 6.8 92 0.6 N 15 20 8 11 1012.8 1012.8 0.0
24/03:30am 8.1 5.0 7.2 94 0.4 N 13 20 7 11 1013.2 1013.2 0.0
24/03:00am 8.2 4.7 7.3 94 0.4 N 15 20 8 11 1013.8 1013.8 0.0
24/02:30am 7.9 5.2 7.3 96 0.3 N 11 17 6 9 1014.6 1014.6 0.0
24/02:00am 7.0 5.1 6.7 98 0.1 NW 6 9 3 5 1015.1 1015.1 0.0
24/01:30am 7.2 4.8 7.1 99 0.0 NNW 9 11 5 6 1015.3 1015.3 0.0
24/01:00am 7.4 6.3 7.0 97 0.2 NNW 2 6 1 3 1015.5 1015.5 0.0
24/12:30am 8.0 5.6 7.2 95 0.4 N 9 13 5 7 1015.7 1015.7 0.0
24/12:00am 8.2 5.5 7.4 95 0.4 N 11 15 6 8 1015.9 1015.9 0.0
 
Date/Time
EST
Temp
°C
App
Temp
°C
Dew
Point
°C
Rel
Hum
%
Delta-T
°C
Wind Press
QNH
hPa
Press
MSL
hPa
Rain since
9am
mm
Dir  Spd
km/h
Gust
km/h
Spd
kts
Gust
kts
23/11:30pm 8.5 5.5 7.7 95 0.4 N 13 17 7 9 1015.9 1015.9 0.0
23/11:00pm 8.0 4.9 7.4 96 0.3 N 13 17 7 9 1016.7 1016.7 0.0
23/10:30pm 7.9 6.1 7.3 96 0.3 NNE 6 9 3 5 1017.2 1017.2 0.0
23/10:00pm 7.8 6.3 6.9 94 0.4 N 4 7 2 4 1017.6 1017.6 0.0
23/09:30pm 8.6 6.9 7.5 93 0.5 N 6 7 3 4 1017.7 1017.7 0.0
23/09:00pm 9.0 7.7 7.6 91 0.7 N 4 7 2 4 1017.7 1017.7 0.0
23/08:30pm 9.7 7.5 8.0 89 0.8 N 9 13 5 7 1017.8 1017.8 0.0
23/08:00pm 10.4 8.3 8.3 87 1.0 N 9 13 5 7 1017.8 1017.8 0.0
23/07:30pm 11.4 9.5 9.0 85 1.2 NNW 9 17 5 9 1017.9 1017.9 0.0
23/07:00pm 11.7 10.1 8.9 83 1.4 NNW 7 11 4 6 1018.1 1018.1 0.0
23/06:30pm 12.9 11.0 9.2 78 1.9 NNW 9 17 5 9 1018.2 1018.2 0.0
23/06:00pm 13.4 11.6 9.5 77 2.0 NNW 9 19 5 10 1018.4 1018.4 0.0
23/05:30pm 14.3 11.7 9.5 73 2.5 NNW 13 19 7 10 1018.2 1018.2 0.0
23/05:00pm 14.7 11.7 9.3 70 2.8 NNW 15 24 8 13 1018.1 1018.1 0.0
23/04:30pm 15.5 12.6 9.6 68 3.1 NW 15 24 8 13 1018.3 1018.3 0.0
23/04:00pm 15.8 12.4 9.2 65 3.4 NW 17 24 9 13 1018.4 1018.4 0.0
23/03:30pm 15.8 12.4 9.0 64 3.5 NNW 17 28 9 15 1018.5 1018.5 0.0
23/03:00pm 15.2 11.2 8.9 66 3.2 NNW 20 32 11 17 1019.0 1019.0 0.0
23/02:30pm 15.6 12.3 9.7 68 3.1 NNW 17 32 9 17 1018.8 1018.8 0.0
23/02:00pm 14.5 10.0 8.7 68 2.9 NNW 22 32 12 17 1019.3 1019.3 0.0
23/01:30pm 15.0 10.2 8.9 67 3.1 NNW 24 39 13 21 1019.7 1019.7 0.0
23/01:00pm 14.6 9.7 8.5 67 3.1 NNW 24 41 13 22 1020.4 1020.4 0.0
23/12:30pm 14.2 9.8 9.0 71 2.6 NNW 22 39 12 21 1021.0 1021.0 0.0
23/12:00pm 13.3 9.4 8.6 73 2.3 NW 19 30 10 16 1021.5 1021.5 0.0
23/11:30am 13.1 10.0 8.8 75 2.2 NW 15 24 8 13 1022.1 1022.1 0.0
23/11:00am 13.6 9.7 8.7 72 2.5 NNW 19 32 10 17 1022.7 1022.7 0.0
23/10:30am 12.0 7.9 7.7 75 2.1 NNW 19 33 10 18 1023.4 1023.4 0.0
23/10:00am 11.1 7.3 7.4 78 1.8 NNW 17 26 9 14 1023.8 1023.8 0.0
23/09:30am 10.5 7.5 7.9 84 1.3 NNW 13 22 7 12 1024.2 1024.2 0.0
23/09:00am 10.1 7.1 7.5 84 1.2 NNW 13 20 7 11 1024.6 1024.6 0.0
23/08:30am 9.8 6.4 7.7 87 1.0 NNW 15 28 8 15 1024.7 1024.7 0.0
23/08:00am 9.6 6.6 7.9 89 0.8 NNW 13 20 7 11 1024.8 1024.8 0.0
23/07:30am 9.4 7.0 8.5 94 0.4 NNW 11 15 6 8 1024.7 1024.7 0.0
23/07:00am 9.3 7.2 8.4 94 0.4 NNW 9 15 5 8 1024.5 1024.5 0.0
23/06:30am 9.1 6.8 9.1 100 0.0 NW 11 15 6 8 1024.5 1024.5 0.0
23/06:00am 9.0 7.5 9.0 100 0.0 NNW 7 13 4 7 1024.4 1024.4 0.0
23/05:30am 9.0 7.1 9.0 100 0.0 NNW 9 17 5 9 1024.4 1024.4 0.0
23/05:00am 9.0 7.5 9.0 100 0.0 NNW 7 11 4 6 1024.4 1024.4 0.0
23/04:30am 9.1 6.8 9.1 100 0.0 NNW 11 15 6 8 1024.5 1024.5 0.0
23/04:00am 9.1 7.2 9.1 100 0.0 NW 9 17 5 9 1024.8 1024.8 0.0
23/03:30am 9.2 6.9 9.1 99 0.0 NNW 11 15 6 8 1024.8 1024.8 0.0
23/03:00am 9.2 7.0 9.2 100 0.0 NW 11 15 6 8 1025.1 1025.1 0.0
23/02:30am 9.0 7.5 9.0 100 0.0 NNW 7 13 4 7 1025.4 1025.4 0.0
23/02:00am 8.8 7.3 8.5 98 0.1 NNW 6 9 3 5 1025.7 1025.8 0.0
23/01:30am 8.6 7.1 8.6 100 0.0 NNW 6 7 3 4 1025.9 1026.0 0.0
23/01:00am 8.2 7.0 8.1 99 0.0 NW 4 6 2 3 1026.1 1026.2 0.0
23/12:30am 7.8 6.1 7.5 98 0.1 N 6 7 3 4 1026.3 1026.4 0.0
23/12:00am 7.2 5.8 7.1 99 0.0 N 4 4 2 2 1026.3 1026.4 0.0
 
Date/Time
EST
Temp
°C
App
Temp
°C
Dew
Point
°C
Rel
Hum
%
Delta-T
°C
Wind Press
QNH
hPa
Press
MSL
hPa
Rain since
9am
mm
Dir  Spd
km/h
Gust
km/h
Spd
kts
Gust
kts
22/11:30pm 6.4 4.7 6.1 98 0.1 N 4 6 2 3 1026.5 1026.6 0.0
22/11:00pm 5.5 3.7 5.2 98 0.1 N 4 6 2 3 1026.8 1026.9 0.0
22/10:30pm 5.7 3.9 5.4 98 0.1 NNW 4 6 2 3 1027.0 1027.1 0.0
22/10:00pm 5.9 3.7 5.5 97 0.2 NW 6 7 3 4 1027.1 1027.2 0.0
22/09:30pm 5.7 3.8 5.0 95 0.3 NW 4 6 2 3 1027.2 1027.3 0.0
22/09:00pm 6.1 4.3 5.2 94 0.4 NW 4 6 2 3 1027.1 1027.2 0.0
22/08:30pm 6.8 4.7 5.6 92 0.5 NW 6 6 3 3 1027.1 1027.2 0.0
22/08:00pm 7.1 5.4 5.7 91 0.6 NW 4 6 2 3 1027.0 1027.1 0.0
22/07:30pm 7.8 6.1 5.9 88 0.9 NW 4 6 2 3 1027.0 1027.1 0.0
22/07:00pm 8.2 6.5 6.0 86 1.0 WNW 4 6 2 3 1027.0 1027.1 0.0
22/06:30pm 8.7 7.0 5.8 82 1.3 W 4 6 2 3 1026.9 1027.0 0.0
22/06:00pm 9.8 7.8 6.2 78 1.7 SW 6 9 3 5 1026.7 1026.8 0.0
22/05:30pm 10.3 8.1 6.1 75 1.9 SW 7 11 4 6 1026.8 1026.9 0.0
22/05:00pm 11.1 9.0 6.0 71 2.4 SSW 6 11 3 6 1026.7 1026.8 0.0
22/04:30pm 11.9 9.4 6.6 70 2.5 SSW 9 15 5 8 1026.6 1026.7 0.0
22/04:00pm 12.1 9.5 6.2 67 2.8 SSW 9 13 5 7 1026.5 1026.6 0.0
22/03:30pm 12.4 9.5 6.5 67 2.8 SSW 11 17 6 9 1026.2 1026.3 0.0
22/03:00pm 12.9 10.0 6.7 66 3.0 SSW 11 17 6 9 1026.0 1026.1 0.0
22/02:30pm 12.9 9.8 7.1 68 2.8 SSW 13 20 7 11 1025.9 1026.0 0.0
22/02:00pm 12.4 8.7 6.5 67 2.8 SSW 15 22 8 12 1025.9 1026.0 0.0
22/01:30pm 12.7 9.2 7.0 68 2.7 S 15 22 8 12 1025.8 1025.9 0.0
22/01:00pm 12.6 8.7 7.1 69 2.6 SSW 17 22 9 12 1026.0 1026.1 0.0
22/12:30pm 11.9 8.0 7.0 72 2.3 S 17 24 9 13 1026.2 1026.3 0.0
22/12:00pm 12.8 8.6 7.5 70 2.6 SSW 19 26 10 14 1026.3 1026.4 0.0
22/11:30am 12.6 8.1 7.1 69 2.7 SSW 20 28 11 15 1026.4 1026.5 0.0
22/11:00am 12.2 7.2 6.5 68 2.7 SSW 22 32 12 17 1026.3 1026.4 0.0
22/10:30am 11.9 5.7 6.0 67 2.8 SSW 28 37 15 20 1026.1 1026.2 0.0
22/10:00am 11.8 5.5 5.7 66 2.8 SSW 28 39 15 21 1025.7 1025.8 0.0
22/09:30am 11.7 4.9 5.3 65 2.9 SSW 30 44 16 24 1025.3 1025.3 0.0
22/09:00am 11.5 4.6 6.6 72 2.3 SSW 32 46 17 25 1024.8 1024.8 0.6
22/08:30am 11.3 4.2 6.6 73 2.2 SSW 33 50 18 27 1024.3 1024.3 0.6
22/08:00am 11.2 4.6 7.7 79 1.7 SSW 32 46 17 25 1023.8 1023.8 0.6
22/07:30am 11.2 4.8 8.4 83 1.4 SSW 32 43 17 23 1023.4 1023.4 0.6
22/07:00am 11.3 4.9 8.7 84 1.3 SSW 32 43 17 23 1022.9 1022.9 0.6
22/06:30am 11.4 4.2 9.1 86 1.1 SSW 37 48 20 26 1022.7 1022.7 0.6
22/06:00am 11.6 4.4 9.3 86 1.1 SW 37 48 20 26 1022.4 1022.4 0.6
22/05:30am 11.1 5.0 10.5 96 0.3 SW 33 46 18 25 1022.2 1022.2 0.6
22/05:00am 12.0 5.8 10.2 89 0.9 SW 33 43 18 23 1022.0 1022.0 0.6
22/04:30am 12.0 5.8 10.2 89 0.9 SW 33 44 18 24 1021.7 1021.7 0.6
22/04:00am 11.9 5.4 10.3 90 0.8 SW 35 48 19 26 1021.6 1021.6 0.6
22/03:30am 12.2 5.2 10.1 87 1.1 SW 37 50 20 27 1021.5 1021.5 0.6
22/03:00am 12.2 5.2 10.1 87 1.1 SW 37 50 20 27 1021.4 1021.4 0.6
22/02:30am 12.2 5.3 10.4 89 0.9 SW 37 52 20 28 1021.4 1021.4 0.6
22/02:03am 12.2 5.5 11.1 93 0.6 SW 37 57 20 31 1021.2 1021.2 0.6
22/02:00am 12.1 5.5 11.3 95 0.4 SW 37 52 20 28 1021.2 1021.2 0.6
22/01:30am 11.5 4.2 11.5 100 0.0 WSW 41 54 22 29 1021.0 1021.0 0.6
22/01:00am 12.0 3.8 11.7 98 0.2 WSW 46 61 25 33 1021.0 1021.0 0.6
22/12:30am 12.1 4.3 11.8 98 0.2 WSW 44 57 24 31 1020.6 1020.6 0.6
22/12:00am 11.9 4.3 11.9 100 0.0 WSW 43 56 23 30 1020.5 1020.5 0.6
 
Date/Time
EST
Temp
°C
App
Temp
°C
Dew
Point
°C
Rel
Hum
%
Delta-T
°C
Wind Press
QNH
hPa
Press
MSL
hPa
Rain since
9am
mm
Dir  Spd
km/h
Gust
km/h
Spd
kts
Gust
kts
21/11:45pm 11.9 4.7 11.9 100 0.0 WSW 41 61 22 33 1020.4 1020.4 0.4
21/11:30pm 12.0 3.4 11.5 97 0.3 WSW 48 63 26 34 1020.3 1020.3 0.2
21/11:00pm 11.8 2.4 11.6 99 0.1 WSW 52 76 28 41 1019.8 1019.8 0.2
21/10:30pm 12.5 4.8 11.4 93 0.6 W 43 63 23 34 1019.8 1019.8 0.2
21/10:00pm 12.3 4.7 11.8 97 0.3 W 43 61 23 33 1019.9 1019.9 0.2
21/09:44pm 12.2 5.5 12.2 100 0.0 W 39 63 21 34 1019.9 1019.9 0.2
21/09:30pm 12.1 5.3 12.1 100 0.0 W 39 54 21 29 1019.8 1019.8 0.2
21/09:05pm 12.9 6.0 11.6 92 0.7 W 39 61 21 33 1019.7 1019.7 0.0
21/09:00pm 12.8 5.9 11.7 93 0.6 W 39 56 21 30 1019.6 1019.6 0.0
21/08:31pm 12.9 6.0 11.6 92 0.7 W 39 59 21 32 1019.7 1019.7 0.0
21/08:30pm 12.9 5.6 11.6 92 0.7 W 41 59 22 32 1019.7 1019.7 0.0
21/08:00pm 12.8 6.6 11.4 91 0.7 W 35 56 19 30 1019.9 1019.9 0.0
21/07:30pm 12.7 6.8 11.3 91 0.7 W 33 56 18 30 1019.5 1019.5 0.0
21/07:03pm 12.4 6.7 11.3 93 0.6 W 32 52 17 28 1020.0 1020.0 0.0
21/07:00pm 12.4 6.5 11.3 93 0.6 W 33 46 18 25 1019.8 1019.8 0.0
21/06:30pm 12.2 7.0 11.6 96 0.3 W 30 44 16 24 1019.8 1019.8 0.0
21/06:00pm 12.1 6.5 11.6 97 0.3 W 32 50 17 27 1019.9 1019.9 0.0
21/05:47pm 12.3 6.8 11.7 96 0.3 W 32 50 17 27 1019.9 1019.9 0.0
21/05:30pm 12.4 7.9 11.3 93 0.6 W 26 44 14 24 1019.6 1019.6 0.0
21/05:01pm 12.7 7.0 11.3 91 0.7 W 32 50 17 27 1019.7 1019.7 0.0
21/05:00pm 12.7 6.8 11.3 91 0.7 W 33 50 18 27 1019.7 1019.7 0.0
21/04:31pm 12.7 7.3 10.9 89 0.9 W 30 48 16 26 1019.6 1019.6 0.0
21/04:30pm 12.7 7.3 10.9 89 0.9 W 30 44 16 24 1019.6 1019.6 0.0
21/04:00pm 12.6 6.7 10.5 87 1.1 W 32 52 17 28 1019.7 1019.7 0.0
21/03:38pm 12.7 6.9 10.9 89 0.9 W 32 54 17 29 1020.2 1020.2 0.0
21/03:30pm 12.8 7.0 10.9 88 1.0 W 32 46 17 25 1020.5 1020.5 0.0
21/03:00pm 13.4 7.0 10.6 83 1.5 W 35 46 19 25 1020.3 1020.3 0.0
21/02:30pm 12.6 5.3 10.3 86 1.2 W 39 54 21 29 1020.8 1020.8 0.0
21/02:21pm 13.6 7.0 10.0 79 1.9 W 35 54 19 29 1020.9 1020.9 0.0
21/02:00pm 13.5 7.3 9.9 79 1.8 WSW 33 50 18 27 1020.8 1020.8 0.0
21/01:39pm 13.8 7.7 10.4 80 1.8 W 33 56 18 30 1020.7 1020.7 0.0
21/01:30pm 14.3 8.0 10.9 80 1.8 W 35 48 19 26 1020.7 1020.7 0.0
21/01:07pm 13.5 7.8 9.9 79 1.9 W 30 52 16 28 1020.7 1020.7 0.0
21/01:00pm 14.5 9.0 11.7 83 1.5 WSW 32 44 17 24 1020.8 1020.8 0.0
21/12:34pm 13.8 8.5 11.1 84 1.4 W 30 48 16 26 1021.0 1021.0 0.0
21/12:30pm 14.1 8.5 11.6 85 1.3 W 32 46 17 25 1021.1 1021.1 0.0
21/12:00pm 13.2 7.8 10.9 86 1.2 WSW 30 41 16 22 1021.5 1021.5 0.0
21/11:30am 13.5 7.9 11.4 87 1.1 WSW 32 41 17 22 1021.7 1021.7 0.0
21/11:00am 13.3 6.9 10.8 85 1.3 WSW 35 50 19 27 1021.7 1021.7 0.0
21/10:30am 12.5 6.2 11.2 92 0.7 WSW 35 46 19 25 1021.8 1021.8 0.0
21/10:00am 12.9 6.5 10.6 86 1.2 WSW 35 54 19 29 1021.4 1021.4 0.0
21/09:30am 12.8 7.1 11.2 90 0.8 WSW 32 44 17 24 1021.1 1021.1 0.0
21/09:00am 12.5 6.3 11.4 93 0.6 WSW 35 50 19 27 1021.3 1021.3 3.0
21/08:30am 12.1 5.2 11.5 96 0.3 WSW 39 57 21 31 1021.3 1021.3 3.0
21/08:13am 11.7 5.1 11.5 99 0.1 WSW 37 56 20 30 1021.3 1021.3 3.0

Other formats

Comma delimited format used in spreadsheet applications
http://www.bom.gov.au/fwo/IDV60801/IDV60801.94830.axf

JavaScript Object Notation format (JSON) in row-major order
http://www.bom.gov.au/fwo/IDV60801/IDV60801.94830.json

Data quality

Most of these data are generated automatically and are frequently updated. Quality checks on data are not normally performed. It is possible for incorrect values to appear. Refer to information at About Latest Weather Observations and please check the disclaimer before using these data.